Time;durP1;ratioP1;P1;durP2;ratioP2;P2;SDS_P1;SDS_P2;PMS_P1;PMS_P2;Temp;Humidity;BMP_temperature;BMP_pressure;BME280_temperature;BME280_humidity;BME280_pressure;Samples;Min_cycle;Max_cycle;Signal;HPM_P1;HPM_P2
2021/09/20 00:00:00;;;;;;;1.10;1.00;;;;;;;18.83;48.66;98687.20;1777776;78;21048;-69
2021/09/20 00:02:26;;;;;;;1.07;1.00;;;;;;;18.82;48.63;98699.05;1781422;80;23325;-69
2021/09/20 00:04:54;;;;;;;1.10;0.90;;;;;;;18.81;48.62;98687.47;1787211;79;20994;-69
2021/09/20 00:07:22;;;;;;;1.20;1.10;;;;;;;18.80;48.64;98689.87;1788903;78;21017;-68
2021/09/20 00:09:48;;;;;;;1.12;1.00;;;;;;;18.80;48.67;98701.97;1780764;79;21026;-68
2021/09/20 00:12:16;;;;;;;1.20;1.10;;;;;;;18.79;48.74;98695.45;1775644;78;21064;-69
2021/09/20 00:14:44;;;;;;;0.95;0.95;;;;;;;18.78;48.75;98693.84;1786902;78;21143;-69
2021/09/20 00:17:11;;;;;;;1.12;1.02;;;;;;;18.78;48.75;98696.53;1785655;78;21050;-70
2021/09/20 00:19:39;;;;;;;0.90;0.90;;;;;;;18.77;48.81;98688.97;1792702;78;21024;-69
2021/09/20 00:22:05;;;;;;;1.85;1.00;;;;;;;18.76;48.81;98690.05;1779822;78;21497;-68
2021/09/20 00:24:32;;;;;;;1.20;1.10;;;;;;;18.77;48.85;98688.16;1782473;78;21053;-68
2021/09/20 00:27:02;;;;;;;1.15;0.90;;;;;;;18.78;48.81;98692.50;1792105;78;21148;-69
2021/09/20 00:29:30;;;;;;;1.45;1.10;;;;;;;18.76;48.89;98683.33;1792450;78;20979;-68
2021/09/20 00:31:58;;;;;;;1.10;1.10;;;;;;;18.77;48.88;98684.13;1787577;78;21005;-68
2021/09/20 00:34:24;;;;;;;2.15;1.12;;;;;;;18.78;48.92;98687.12;1794010;78;21045;-68
2021/09/20 00:36:51;;;;;;;1.30;1.20;;;;;;;18.76;48.97;98686.02;1792091;78;21040;-68
2021/09/20 00:39:17;;;;;;;1.00;1.00;;;;;;;18.76;48.98;98688.70;1775008;78;21829;-68
2021/09/20 00:41:47;;;;;;;1.05;1.05;;;;;;;18.77;48.95;98686.82;1789801;78;21013;-68
2021/09/20 00:44:15;;;;;;;0.90;0.90;;;;;;;18.76;48.97;98675.80;1793629;78;21025;-67
2021/09/20 00:46:41;;;;;;;0.93;0.93;;;;;;;18.76;48.95;98683.86;1784409;78;21017;-69
2021/09/20 00:49:08;;;;;;;0.90;0.90;;;;;;;18.74;48.98;98677.38;1786428;78;21072;-68
2021/09/20 00:51:34;;;;;;;1.00;1.00;;;;;;;18.75;49.03;98685.72;1792267;78;21757;-68
2021/09/20 00:54:02;;;;;;;1.02;1.00;;;;;;;18.75;49.05;98675.49;1791654;79;21561;-67
2021/09/20 00:56:30;;;;;;;1.20;1.10;;;;;;;18.75;49.03;98687.59;1794009;78;21079;-68
2021/09/20 00:58:56;;;;;;;1.00;1.00;;;;;;;18.74;49.01;98677.92;1786837;78;21062;-70
2021/09/20 01:01:23;;;;;;;2.35;1.37;;;;;;;18.75;49.05;98686.25;1782761;78;21068;-69
2021/09/20 01:03:51;;;;;;;1.00;0.93;;;;;;;18.74;49.06;98684.10;1784209;80;21117;-68
2021/09/20 01:06:17;;;;;;;1.57;1.10;;;;;;;18.73;49.07;98681.66;1790035;78;21037;-68
2021/09/20 01:08:44;;;;;;;1.27;1.00;;;;;;;18.72;49.08;98679.50;1792219;78;20997;-69
2021/09/20 01:11:12;;;;;;;2.00;1.20;;;;;;;18.72;49.11;98680.05;1791798;78;21616;-68
2021/09/20 01:13:40;;;;;;;1.07;1.02;;;;;;;18.72;49.08;98674.66;1782858;78;21014;-68
2021/09/20 01:16:06;;;;;;;1.07;1.07;;;;;;;18.71;49.14;98675.70;1776326;78;21048;-68
2021/09/20 01:18:34;;;;;;;2.20;1.10;;;;;;;18.69;49.16;98680.52;1790651;78;21037;-68
2021/09/20 01:21:03;;;;;;;0.95;0.95;;;;;;;18.69;49.21;98677.30;1790874;78;21029;-67
2021/09/20 01:23:32;;;;;;;1.02;1.02;;;;;;;18.69;49.24;98671.11;1786991;80;21037;-67
2021/09/20 01:25:58;;;;;;;0.82;0.82;;;;;;;18.67;49.24;98665.97;1788201;78;21482;-68
2021/09/20 01:28:24;;;;;;;0.80;0.80;;;;;;;18.67;49.26;98674.04;1789239;78;21092;-69
2021/09/20 01:30:52;;;;;;;1.22;1.12;;;;;;;18.65;49.25;98664.86;1778594;78;20990;-68
2021/09/20 01:33:19;;;;;;;1.00;1.00;;;;;;;18.67;49.24;98672.16;1723815;82;21024;-69
2021/09/20 01:35:45;;;;;;;1.30;1.20;;;;;;;18.65;49.24;98668.09;1722962;81;21572;-68
2021/09/20 01:38:12;;;;;;;1.10;1.00;;;;;;;18.65;49.27;98670.25;1725269;81;21517;-69
2021/09/20 01:40:40;;;;;;;1.47;1.10;;;;;;;18.65;49.29;98673.47;1735247;82;21114;-69
2021/09/20 01:43:07;;;;;;;2.17;1.05;;;;;;;18.63;49.29;98661.61;1729654;81;21604;-69
2021/09/20 01:45:35;;;;;;;1.52;1.05;;;;;;;18.63;49.31;98662.95;1719168;81;21552;-69
2021/09/20 01:48:02;;;;;;;1.10;1.10;;;;;;;18.62;49.32;98665.88;1736089;81;21001;-69
2021/09/20 01:50:28;;;;;;;1.55;1.20;;;;;;;18.62;49.31;98668.57;1726263;81;21059;-67
2021/09/20 01:52:54;;;;;;;1.55;1.05;;;;;;;18.61;49.33;98662.39;1724073;82;21026;-68
2021/09/20 01:55:21;;;;;;;0.90;0.90;;;;;;;18.60;49.28;98664.81;1722527;81;21553;-70
2021/09/20 01:57:48;;;;;;;2.22;1.02;;;;;;;18.60;49.34;98666.66;1734545;81;21085;-69
2021/09/20 02:00:15;;;;;;;1.30;1.15;;;;;;;18.60;49.37;98663.97;1739016;81;21749;-69
2021/09/20 02:02:42;;;;;;;1.02;1.00;;;;;;;18.58;49.40;98665.59;1733832;81;21045;-69
2021/09/20 02:05:09;;;;;;;1.10;1.00;;;;;;;18.58;49.36;98668.28;1741338;82;21133;-68
2021/09/20 02:07:41;;;;;;;1.10;1.00;;;;;;;18.58;49.40;98665.59;1739731;82;21022;-68
2021/09/20 02:10:09;;;;;;;1.10;0.90;;;;;;;18.57;49.46;98667.98;1732966;81;21086;-70
2021/09/20 02:12:39;;;;;;;0.98;0.98;;;;;;;18.56;49.44;98655.61;1734227;81;21609;-70
2021/09/20 02:15:08;;;;;;;1.87;0.90;;;;;;;18.56;49.41;98651.58;1761975;80;21089;-69
2021/09/20 02:17:36;;;;;;;0.88;0.88;;;;;;;18.56;49.42;98663.67;1775785;78;20999;-68
2021/09/20 02:20:04;;;;;;;0.95;0.88;;;;;;;18.55;49.40;98659.34;1774986;79;21621;-70
2021/09/20 02:22:34;;;;;;;1.10;1.00;;;;;;;18.54;49.39;98659.05;1776886;78;21034;-71
2021/09/20 02:24:59;;;;;;;1.07;1.07;;;;;;;18.54;49.48;98656.89;1772599;78;21549;-69
2021/09/20 02:27:26;;;;;;;0.90;0.90;;;;;;;18.52;49.49;98657.14;1773903;79;21016;-68
2021/09/20 02:29:52;;;;;;;1.10;1.00;;;;;;;18.52;49.51;98662.52;1776567;79;21123;-69
2021/09/20 02:32:20;;;;;;;1.37;1.27;;;;;;;18.52;49.55;98663.86;1760234;78;21007;-69
2021/09/20 02:34:48;;;;;;;1.57;1.00;;;;;;;18.51;49.57;98660.91;1769667;79;21007;-69
2021/09/20 02:37:14;;;;;;;1.10;1.00;;;;;;;18.51;49.57;98660.09;1772995;78;21046;-70
2021/09/20 02:39:40;;;;;;;1.10;1.10;;;;;;;18.51;49.59;98662.78;1773713;78;21006;-69
2021/09/20 02:42:07;;;;;;;1.17;0.80;;;;;;;18.49;49.64;98654.95;1776884;78;21223;-69
2021/09/20 02:44:34;;;;;;;1.12;1.02;;;;;;;18.48;49.65;98656.00;1773565;80;21014;-69
2021/09/20 02:47:00;;;;;;;1.00;1.00;;;;;;;18.48;49.61;98661.38;1768294;80;21030;-70
2021/09/20 02:49:27;;;;;;;0.80;0.80;;;;;;;18.48;49.66;98661.38;1775281;78;21037;-69
2021/09/20 02:51:55;;;;;;;0.80;0.80;;;;;;;18.48;49.69;98666.77;1777843;79;21010;-70
2021/09/20 02:54:23;;;;;;;0.72;0.72;;;;;;;18.49;49.70;98671.09;1774562;80;21168;-69
2021/09/20 02:56:49;;;;;;;1.30;0.95;;;;;;;18.49;49.68;98662.22;1765387;79;21025;-68
2021/09/20 02:59:15;;;;;;;0.95;0.95;;;;;;;18.50;49.71;98667.33;1771856;78;21022;-70
2021/09/20 03:01:42;;;;;;;2.77;1.22;;;;;;;18.50;49.74;98661.95;1766234;79;21002;-69
2021/09/20 03:04:09;;;;;;;0.85;0.85;;;;;;;18.49;49.73;98661.69;1769449;79;21002;-70
2021/09/20 03:06:36;;;;;;;1.00;1.00;;;;;;;18.51;49.73;98664.12;1769826;80;21143;-68
2021/09/20 03:09:04;;;;;;;1.12;0.95;;;;;;;18.51;49.74;98668.16;1769659;79;21014;-69
2021/09/20 03:11:30;;;;;;;0.90;0.90;;;;;;;18.51;49.72;98665.48;1766014;79;21277;-69
2021/09/20 03:13:57;;;;;;;1.00;1.00;;;;;;;18.49;49.71;98666.25;1765063;78;21043;-68
2021/09/20 03:16:23;;;;;;;1.30;1.20;;;;;;;18.51;49.69;98671.66;1774561;79;21013;-68
2021/09/20 03:18:50;;;;;;;2.30;2.10;;;;;;;18.52;49.71;98668.43;1776181;78;21095;-69
2021/09/20 03:21:19;;;;;;;2.42;2.10;;;;;;;18.52;49.70;98671.92;1772545;78;21050;-69
2021/09/20 03:23:48;;;;;;;2.20;1.80;;;;;;;18.53;49.72;98675.45;1759045;78;21009;-68
2021/09/20 03:26:14;;;;;;;1.77;1.52;;;;;;;18.53;49.69;98672.77;1778567;78;21081;-68
2021/09/20 03:28:41;;;;;;;1.62;1.52;;;;;;;18.53;49.69;98665.50;1775192;80;21092;-69
2021/09/20 03:31:08;;;;;;;1.50;1.40;;;;;;;18.54;49.67;98672.50;1777660;80;21119;-71
2021/09/20 03:33:36;;;;;;;3.02;1.37;;;;;;;18.55;49.65;98672.80;1768135;79;21010;-69
2021/09/20 03:36:04;;;;;;;1.20;1.10;;;;;;;18.55;49.60;98670.11;1777052;78;21002;-70
2021/09/20 03:38:30;;;;;;;1.70;1.20;;;;;;;18.56;49.59;98679.81;1753362;79;21006;-69
2021/09/20 03:40:57;;;;;;;1.40;1.30;;;;;;;18.58;49.56;98688.95;1769110;78;21013;-70
2021/09/20 03:43:23;;;;;;;1.37;1.10;;;;;;;18.57;49.57;98690.03;1754263;80;21154;-69
2021/09/20 03:45:51;;;;;;;1.10;1.00;;;;;;;18.57;49.61;98689.50;1763342;79;21066;-68
2021/09/20 03:48:18;;;;;;;1.77;1.10;;;;;;;18.58;49.55;98680.38;1755158;79;21003;-68
2021/09/20 03:50:46;;;;;;;1.20;1.10;;;;;;;18.59;49.55;98691.41;1771274;78;21006;-70
2021/09/20 03:53:13;;;;;;;1.15;1.10;;;;;;;18.60;49.53;98692.22;1778216;78;21527;-70
2021/09/20 03:55:40;;;;;;;2.58;1.75;;;;;;;18.61;49.56;98690.63;1765235;78;21143;-70
2021/09/20 03:58:06;;;;;;;1.40;1.30;;;;;;;18.62;49.52;98696.81;1771036;79;20975;-70
2021/09/20 04:00:34;;;;;;;1.20;1.10;;;;;;;18.62;49.51;98699.00;1774946;79;20990;-70
2021/09/20 04:03:00;;;;;;;1.55;1.27;;;;;;;18.63;49.50;98696.58;1773953;78;21070;-71
2021/09/20 04:05:27;;;;;;;1.32;1.22;;;;;;;18.64;49.45;98702.80;1776822;78;21537;-70
2021/09/20 04:07:53;;;;;;;1.87;1.42;;;;;;;18.65;49.44;98703.06;1777512;78;21800;-70
2021/09/20 04:10:20;;;;;;;3.05;2.75;;;;;;;18.65;49.49;98703.06;1779882;79;21065;-69
2021/09/20 04:12:46;;;;;;;3.45;2.58;;;;;;;18.66;49.41;98717.62;1762195;79;21058;-70
2021/09/20 04:15:14;;;;;;;1.70;1.60;;;;;;;18.67;49.36;98709.01;1770821;78;21493;-70
2021/09/20 04:17:40;;;;;;;1.98;1.70;;;;;;;18.66;49.37;98713.58;1771462;79;22450;-70
2021/09/20 04:20:10;;;;;;;1.65;1.55;;;;;;;18.68;49.35;98718.72;1774096;79;21009;-70
2021/09/20 04:22:36;;;;;;;1.85;1.52;;;;;;;18.68;49.30;98718.72;1776024;78;21045;-69
2021/09/20 04:25:06;;;;;;;1.75;1.60;;;;;;;18.70;49.28;98718.45;1775782;79;21049;-70
2021/09/20 04:27:32;;;;;;;1.35;1.25;;;;;;;18.70;49.27;98721.98;1697334;82;21097;-70
2021/09/20 04:30:00;;;;;;;1.80;1.50;;;;;;;18.70;49.23;98723.83;1712859;81;21066;-70
2021/09/20 04:32:28;;;;;;;2.10;1.40;;;;;;;18.72;49.25;98729.81;1711182;83;21092;-71
2021/09/20 04:34:55;;;;;;;2.15;1.30;;;;;;;18.72;49.21;98729.81;1711321;83;21042;-70
2021/09/20 04:37:22;;;;;;;1.72;1.40;;;;;;;18.72;49.18;98727.92;1770368;80;21478;-71
2021/09/20 04:39:48;;;;;;;1.10;1.10;;;;;;;18.74;49.20;98734.41;1778538;79;20983;-72
2021/09/20 04:42:15;;;;;;;1.60;1.27;;;;;;;18.74;49.19;98735.22;1770201;78;21081;-72
2021/09/20 04:44:41;;;;;;;4.65;3.47;;;;;;;18.75;49.18;98743.55;1767178;78;21057;-71
2021/09/20 04:47:08;;;;;;;5.67;5.00;;;;;;;18.76;49.23;98743.05;1750614;80;21720;-71
2021/09/20 04:49:34;;;;;;;4.12;3.37;;;;;;;18.77;49.23;98750.05;1771303;78;21020;-70
2021/09/20 04:52:03;;;;;;;3.77;3.08;;;;;;;18.77;49.18;98751.39;1767674;79;21132;-71
2021/09/20 04:54:30;;;;;;;3.58;2.80;;;;;;;18.79;49.17;98750.07;1775875;78;21022;-71
2021/09/20 04:56:56;;;;;;;3.65;2.75;;;;;;;18.79;49.19;98745.23;1766943;79;21468;-71
2021/09/20 04:59:23;;;;;;;2.60;2.10;;;;;;;18.80;49.20;98750.41;1772090;79;21522;-71
2021/09/20 05:01:51;;;;;;;3.75;1.98;;;;;;;18.81;49.17;98752.55;1775880;80;21019;-71
2021/09/20 05:04:17;;;;;;;2.55;1.95;;;;;;;18.83;49.18;98754.47;1775529;80;21077;-70
2021/09/20 05:06:46;;;;;;;1.95;1.75;;;;;;;18.83;49.19;98747.73;1772493;80;20979;-71
2021/09/20 05:09:13;;;;;;;1.80;1.60;;;;;;;18.84;49.19;98752.08;1772114;79;21077;-71
2021/09/20 05:11:39;;;;;;;1.70;1.60;;;;;;;18.85;49.13;98746.96;1770564;79;21098;-71
2021/09/20 05:14:07;;;;;;;1.72;1.57;;;;;;;18.85;49.16;98755.03;1763771;80;21537;-70
2021/09/20 05:16:34;;;;;;;2.77;1.50;;;;;;;18.86;49.15;98761.52;1779562;79;21002;-71
2021/09/20 05:19:02;;;;;;;2.17;1.98;;;;;;;18.88;49.11;98756.44;1789282;79;21045;-72
2021/09/20 05:21:28;;;;;;;2.12;1.55;;;;;;;18.89;49.09;98767.47;1767868;79;21519;-72
2021/09/20 05:23:55;;;;;;;1.52;1.42;;;;;;;18.89;49.06;98768.30;1767874;79;21021;-72
2021/09/20 05:29:20;;;;;;;1.50;1.40;;;;;;;18.94;49.10;98768.36;1861053;75;22458;-71
2021/09/20 05:31:46;;;;;;;1.90;1.70;;;;;;;18.89;49.07;98765.62;1816254;77;21001;-72
2021/09/20 05:34:13;;;;;;;4.50;3.77;;;;;;;18.91;49.05;98768.88;1816457;77;21567;-73
2021/09/20 05:36:39;;;;;;;4.65;3.52;;;;;;;18.92;49.04;98777.22;1826472;77;21481;-70
2021/09/20 05:39:06;;;;;;;4.12;3.00;;;;;;;18.93;49.04;98775.33;1817668;77;21062;-72
2021/09/20 05:41:32;;;;;;;4.17;2.70;;;;;;;18.92;49.02;98785.29;1838696;77;21026;-72
2021/09/20 05:43:59;;;;;;;2.95;2.52;;;;;;;18.93;49.08;98780.20;1814029;77;21027;-72
2021/09/20 05:46:25;;;;;;;2.52;2.27;;;;;;;18.95;49.04;98785.31;1823869;77;21065;-73
2021/09/20 05:48:52;;;;;;;3.08;2.52;;;;;;;18.94;48.99;98795.27;1820985;77;21489;-70
2021/09/20 05:51:18;;;;;;;5.37;2.60;;;;;;;18.94;49.01;98793.93;1828214;77;21139;-70
2021/09/20 05:53:46;;;;;;;4.10;3.05;;;;;;;18.95;49.04;98792.05;1827105;77;21588;-73
2021/09/20 05:56:15;;;;;;;3.17;2.77;;;;;;;18.95;49.03;98799.61;1823568;77;21024;-75
2021/09/20 05:58:41;;;;;;;3.95;2.70;;;;;;;18.96;49.03;98806.61;1825209;77;21101;-73
2021/09/20 06:01:08;;;;;;;3.52;2.83;;;;;;;18.96;49.03;98807.14;1832504;77;21041;-74
2021/09/20 06:03:35;;;;;;;2.55;1.85;;;;;;;18.96;49.04;98806.61;1820885;77;21599;-61
2021/09/20 06:06:01;;;;;;;2.45;1.70;;;;;;;18.98;50.35;98797.76;1819593;77;21064;-58
2021/09/20 06:08:28;;;;;;;1.65;1.47;;;;;;;19.05;51.35;98780.91;1839741;77;21013;-59
2021/09/20 06:10:54;;;;;;;1.40;1.30;;;;;;;19.19;51.88;98785.95;1835259;77;22030;-58
2021/09/20 06:13:22;;;;;;;3.47;1.62;;;;;;;19.31;52.16;98783.95;1811089;77;21025;-59
2021/09/20 06:15:52;;;;;;;2.37;1.60;;;;;;;19.46;52.39;98790.09;1820217;77;21643;-58
2021/09/20 06:18:20;;;;;;;1.75;1.62;;;;;;;19.60;52.53;98791.34;1828245;77;21084;-58
2021/09/20 06:20:47;;;;;;;1.72;1.40;;;;;;;19.75;52.49;98793.98;1841646;77;21068;-59
2021/09/20 06:23:15;;;;;;;2.42;1.40;;;;;;;19.88;52.41;98792.26;1826951;77;21072;-59
2021/09/20 06:25:43;;;;;;;1.95;1.42;;;;;;;20.00;52.25;98796.97;1846131;77;21019;-59
2021/09/20 06:28:09;;;;;;;3.90;1.50;;;;;;;20.13;52.09;98803.86;1818481;77;21076;-58
2021/09/20 06:30:36;;;;;;;4.40;1.50;;;;;;;20.24;51.97;98806.11;1810438;78;21056;-59
2021/09/20 06:33:03;;;;;;;2.37;1.85;;;;;;;20.35;51.87;98808.38;1821292;77;21085;-59
2021/09/20 06:35:29;;;;;;;1.77;1.57;;;;;;;20.45;51.75;98807.66;1818292;77;21880;-56
2021/09/20 06:37:55;;;;;;;3.22;1.27;;;;;;;20.54;51.81;98811.53;1832927;77;21571;-59
2021/09/20 06:40:22;;;;;;;7.78;1.60;;;;;;;20.63;51.78;98818.13;1837698;76;20981;-58
2021/09/20 06:42:48;;;;;;;5.65;1.80;;;;;;;20.71;51.73;98822.24;1829297;77;21525;-59
2021/09/20 06:45:15;;;;;;;7.87;2.62;;;;;;;20.80;52.04;98826.08;1826745;77;21029;-58
2021/09/20 06:47:42;;;;;;;4.15;1.67;;;;;;;20.87;52.25;98832.08;1822817;77;21112;-58
2021/09/20 06:50:10;;;;;;;4.72;2.02;;;;;;;20.94;52.51;98832.69;1826528;77;21037;-58
2021/09/20 06:52:39;;;;;;;6.20;1.90;;;;;;;21.00;53.06;98830.30;1818372;77;21010;-60
2021/09/20 06:55:09;;;;;;;4.62;1.90;;;;;;;21.07;53.42;98836.81;1820246;77;21065;-59
2021/09/20 06:57:35;;;;;;;3.45;1.92;;;;;;;21.15;53.43;98834.17;1820284;77;21053;-57
2021/09/20 07:00:04;;;;;;;2.80;1.67;;;;;;;21.21;53.36;98839.36;1826819;77;21114;-58
2021/09/20 07:02:31;;;;;;;4.83;1.62;;;;;;;21.28;53.38;98839.66;1821958;77;21025;-56
2021/09/20 07:04:59;;;;;;;3.58;2.15;;;;;;;21.33;53.43;98845.92;1795565;77;20992;-57
2021/09/20 07:07:25;;;;;;;5.83;1.87;;;;;;;21.38;53.42;98840.56;1845024;77;21541;-58
2021/09/20 07:09:51;;;;;;;5.90;1.65;;;;;;;21.46;53.28;98850.61;1827538;77;21025;-58
2021/09/20 07:12:18;;;;;;;3.25;1.87;;;;;;;21.51;53.07;98850.65;1814172;77;21072;-58
2021/09/20 07:14:46;;;;;;;6.78;2.15;;;;;;;21.56;53.02;98860.14;1817883;77;21482;-57
2021/09/20 07:17:12;;;;;;;3.08;1.65;;;;;;;21.61;53.05;98858.80;1836051;77;20992;-58
2021/09/20 07:19:39;;;;;;;5.85;1.87;;;;;;;21.66;53.01;98860.19;1817905;77;21016;-61
2021/09/20 07:22:05;;;;;;;4.35;1.90;;;;;;;21.70;52.90;98860.48;1822322;77;21053;-57
2021/09/20 07:24:31;;;;;;;2.98;1.85;;;;;;;21.75;52.78;98864.03;1818946;77;21110;-60
2021/09/20 07:27:00;;;;;;;6.75;1.70;;;;;;;21.79;52.78;98865.67;1819231;76;21470;-59
2021/09/20 07:29:26;;;;;;;3.72;1.70;;;;;;;21.85;52.76;98875.43;1821383;77;21559;-57
2021/09/20 07:31:52;;;;;;;3.33;1.75;;;;;;;21.89;52.71;98868.95;1827587;77;21048;-60
2021/09/20 07:34:19;;;;;;;3.45;2.08;;;;;;;21.93;52.62;98875.47;1823870;76;21080;-59
2021/09/20 07:36:45;;;;;;;5.92;1.50;;;;;;;21.97;52.51;98869.25;1835247;76;21145;-57
2021/09/20 07:39:12;;;;;;;3.15;1.82;;;;;;;22.01;52.35;98873.59;1827029;76;22094;-59
2021/09/20 07:41:39;;;;;;;3.33;1.90;;;;;;;22.04;52.18;98885.25;1818484;76;21533;-58
2021/09/20 07:44:07;;;;;;;3.85;2.12;;;;;;;22.08;52.03;98882.80;1834109;76;21043;-60
2021/09/20 07:46:33;;;;;;;4.25;1.87;;;;;;;22.12;51.92;98892.05;1849975;76;21064;-58
2021/09/20 07:48:59;;;;;;;3.15;1.70;;;;;;;22.16;51.83;98893.14;1815256;76;21056;-59
2021/09/20 07:51:26;;;;;;;3.12;1.82;;;;;;;22.18;51.73;98899.90;1817471;76;21564;-58
2021/09/20 07:53:52;;;;;;;2.25;1.98;;;;;;;22.21;51.62;98897.19;1819779;76;21028;-59
2021/09/20 07:56:19;;;;;;;4.72;2.17;;;;;;;22.24;51.52;98894.52;1829966;76;21017;-60
2021/09/20 07:58:46;;;;;;;4.95;2.20;;;;;;;22.27;51.43;98908.36;1819591;76;21477;-58
2021/09/20 08:01:12;;;;;;;3.27;2.08;;;;;;;22.30;51.35;98898.89;1839405;76;23272;-59
2021/09/20 08:03:38;;;;;;;4.22;1.85;;;;;;;22.33;51.28;98894.31;1831706;76;21037;-58
2021/09/20 08:06:06;;;;;;;6.12;2.15;;;;;;;22.34;51.22;98895.37;1835436;76;21043;-57
2021/09/20 08:08:33;;;;;;;3.20;2.10;;;;;;;22.39;51.21;98895.95;1824140;76;21001;-58
2021/09/20 08:11:00;;;;;;;3.45;2.55;;;;;;;22.42;51.15;98894.59;1823166;76;21045;-58
2021/09/20 08:13:26;;;;;;;2.50;2.10;;;;;;;22.45;51.10;98894.08;1821889;76;21746;-57
2021/09/20 08:15:54;;;;;;;2.72;2.15;;;;;;;22.46;51.02;98896.48;1831921;76;20986;-57
2021/09/20 08:18:20;;;;;;;2.37;1.92;;;;;;;22.49;50.95;98896.52;1829889;77;21006;-58
2021/09/20 08:20:47;;;;;;;3.75;2.02;;;;;;;22.52;50.87;98899.50;1823956;76;21052;-58
2021/09/20 08:23:14;;;;;;;3.55;2.35;;;;;;;22.54;50.82;98898.70;1836365;76;21005;-57
2021/09/20 08:25:41;;;;;;;2.15;1.90;;;;;;;22.56;50.74;98900.59;1826684;77;21160;-58
2021/09/20 08:28:07;;;;;;;2.27;2.00;;;;;;;22.58;50.69;98915.22;1834074;76;21049;-59
2021/09/20 08:30:34;;;;;;;4.08;2.40;;;;;;;22.61;50.66;98913.31;1831245;76;21029;-62
2021/09/20 08:33:01;;;;;;;3.70;2.02;;;;;;;22.63;50.63;98916.56;1827592;78;21494;-58
2021/09/20 08:35:29;;;;;;;2.27;2.00;;;;;;;22.66;50.63;98924.16;1828674;77;21029;-59
2021/09/20 08:37:55;;;;;;;2.40;2.00;;;;;;;22.68;50.65;98923.91;1828220;77;21131;-58
2021/09/20 08:40:22;;;;;;;2.45;1.80;;;;;;;22.70;50.58;98921.73;1831831;76;22009;-60
2021/09/20 08:42:50;;;;;;;3.15;1.90;;;;;;;22.74;50.55;98929.59;1832537;76;21040;-58
2021/09/20 08:45:18;;;;;;;2.92;2.20;;;;;;;22.75;50.53;98932.56;1833725;76;21044;-58
2021/09/20 08:47:47;;;;;;;4.70;1.95;;;;;;;22.77;50.50;98931.75;1834151;76;21037;-58
2021/09/20 08:50:15;;;;;;;2.70;2.17;;;;;;;22.78;50.39;98934.74;1830208;77;21077;-58
2021/09/20 08:52:41;;;;;;;2.40;2.00;;;;;;;22.81;50.30;98938.25;1824953;77;21559;-59
2021/09/20 08:55:09;;;;;;;3.52;2.40;;;;;;;22.83;50.19;98940.17;1826118;77;21033;-58
2021/09/20 08:57:36;;;;;;;3.37;2.30;;;;;;;22.85;50.11;98938.53;1824515;77;21124;-58
2021/09/20 09:00:07;;;;;;;4.05;2.00;;;;;;;22.85;50.03;98940.72;1823490;77;21048;-60
2021/09/20 09:02:33;;;;;;;3.00;2.35;;;;;;;22.87;49.91;98943.97;1824842;77;21109;-58
2021/09/20 09:05:25;;;;;;;2.25;2.05;;;;;;;22.89;49.83;98946.39;1818507;77;21044;-61
2021/09/20 09:08:01;;;;;;;2.70;2.17;;;;;;;22.90;49.74;98940.70;1841792;76;21069;-59
2021/09/20 09:10:31;;;;;;;5.62;2.40;;;;;;;22.90;49.65;98946.12;1832960;76;21099;-58
2021/09/20 09:12:57;;;;;;;3.08;2.60;;;;;;;22.92;49.58;98948.02;1824803;77;21117;-60
2021/09/20 09:15:25;;;;;;;2.52;2.27;;;;;;;22.93;49.51;98952.92;1819620;77;21176;-58
2021/09/20 09:17:56;;;;;;;4.10;2.02;;;;;;;22.94;49.47;98955.88;1820023;77;21095;-58
2021/09/20 09:20:34;;;;;;;2.37;2.12;;;;;;;22.95;49.38;98960.23;1816686;77;21719;-57
2021/09/20 09:23:11;;;;;;;2.35;2.15;;;;;;;22.95;49.31;98956.98;1827087;76;21040;-59
2021/09/20 09:25:44;;;;;;;1.95;1.77;;;;;;;22.98;49.29;98963.74;1821817;77;21080;-59
2021/09/20 09:28:18;;;;;;;2.92;2.12;;;;;;;22.99;49.26;98973.51;1826195;77;22844;-58
2021/09/20 09:30:47;;;;;;;4.25;2.08;;;;;;;22.99;49.21;98974.06;1821475;77;21045;-58
2021/09/20 09:33:20;;;;;;;2.52;2.30;;;;;;;23.00;49.15;98974.31;1812419;77;21071;-57
2021/09/20 09:35:49;;;;;;;3.08;2.77;;;;;;;23.01;49.10;98978.66;1816789;77;21048;-57
2021/09/20 09:38:16;;;;;;;2.37;2.05;;;;;;;23.02;49.04;98977.02;1826780;77;21049;-60
2021/09/20 09:40:56;;;;;;;2.40;2.20;;;;;;;23.03;48.98;98977.88;1836630;77;21061;-61
2021/09/20 09:43:28;;;;;;;2.40;1.92;;;;;;;23.04;48.93;98983.01;1826351;77;21007;-61
2021/09/20 09:45:56;;;;;;;3.27;2.20;;;;;;;23.06;48.86;98981.39;1784603;79;21068;-61
2021/09/20 09:48:26;;;;;;;2.35;2.15;;;;;;;23.07;48.81;98980.33;1763214;80;21101;-60
2021/09/20 09:50:57;;;;;;;3.45;2.05;;;;;;;23.07;48.80;98981.67;1771405;80;21124;-60
2021/09/20 09:53:34;;;;;;;2.50;1.80;;;;;;;23.09;48.71;98987.09;1756703;80;21214;-61
2021/09/20 09:56:17;;;;;;;2.67;1.70;;;;;;;23.09;48.69;98983.02;1775283;80;21033;-60
2021/09/20 09:59:03;;;;;;;3.92;1.90;;;;;;;23.10;48.63;98982.48;1760163;80;21057;-60
2021/09/20 10:01:33;;;;;;;2.42;2.12;;;;;;;23.10;48.57;98983.31;1768402;80;21581;-59
2021/09/20 10:04:15;;;;;;;2.25;1.72;;;;;;;23.11;48.53;98986.28;1758260;80;21033;-59
2021/09/20 10:06:46;;;;;;;3.67;2.00;;;;;;;23.13;48.49;98987.37;1778296;78;21545;-61
2021/09/20 10:09:20;;;;;;;2.05;1.95;;;;;;;23.13;48.46;98992.78;1783157;78;21158;-59
2021/09/20 10:11:48;;;;;;;2.27;1.80;;;;;;;23.13;48.47;98979.24;1774888;79;21163;-59
2021/09/20 10:14:16;;;;;;;1.77;1.67;;;;;;;23.14;48.49;98991.17;1764066;79;21033;-59
2021/09/20 10:16:44;;;;;;;2.50;1.70;;;;;;;23.15;48.45;98996.04;1781554;79;21009;-59
2021/09/20 10:19:12;;;;;;;2.27;1.95;;;;;;;23.18;48.36;98994.67;1757135;80;20990;-61
2021/09/20 10:21:40;;;;;;;3.27;1.72;;;;;;;23.18;48.33;98991.45;1777007;79;20977;-60
2021/09/20 10:24:08;;;;;;;1.85;1.70;;;;;;;23.20;48.28;98987.09;1771143;79;21532;-60
2021/09/20 10:26:34;;;;;;;3.65;1.72;;;;;;;23.20;48.34;98991.98;1785713;79;21021;-60
2021/09/20 10:29:03;;;;;;;1.98;1.72;;;;;;;23.21;48.24;98994.95;1789328;78;21033;-59
2021/09/20 10:31:30;;;;;;;3.70;1.90;;;;;;;23.22;48.14;98995.24;1783078;78;21517;-60
2021/09/20 10:34:24;;;;;;;2.17;1.50;;;;;;;23.25;48.09;99002.81;1771915;78;21034;-61
2021/09/20 10:37:00;;;;;;;4.53;1.65;;;;;;;23.26;48.06;99003.10;1767556;79;21104;-60
2021/09/20 10:39:54;;;;;;;4.85;1.55;;;;;;;23.27;48.05;99004.71;1759705;78;21228;-61
2021/09/20 10:42:57;;;;;;;2.33;1.50;;;;;;;23.28;48.00;99013.13;1762574;78;21115;-60
2021/09/20 10:45:39;;;;;;;2.65;1.67;;;;;;;23.29;48.03;99011.22;1764911;79;22121;-59
2021/09/20 10:48:25;;;;;;;2.03;1.60;;;;;;;23.28;48.01;99010.97;1731937;80;21097;-61
2021/09/20 10:51:15;;;;;;;2.90;1.67;;;;;;;23.26;48.01;99013.94;1770026;78;21080;-60
2021/09/20 10:53:42;;;;;;;2.50;1.62;;;;;;;23.27;48.02;99017.45;1780140;78;21059;-59
2021/09/20 10:56:17;;;;;;;2.52;1.90;;;;;;;23.26;48.00;99019.36;1769579;78;21016;-62
2021/09/20 10:58:56;;;;;;;1.50;1.40;;;;;;;23.28;48.04;99020.45;1785389;78;21094;-60
2021/09/20 11:01:29;;;;;;;1.72;1.60;;;;;;;23.27;48.00;99022.33;1780491;78;21557;-59
2021/09/20 11:04:05;;;;;;;1.90;1.80;;;;;;;23.28;48.01;99025.32;1770009;78;21167;-61
2021/09/20 11:06:36;;;;;;;3.72;1.80;;;;;;;23.28;48.00;99028.03;1769233;78;21030;-60
2021/09/20 11:09:12;;;;;;;1.70;1.60;;;;;;;23.30;48.02;99030.48;1761383;78;21065;-61
2021/09/20 11:11:42;;;;;;;2.72;1.60;;;;;;;23.31;47.97;99038.86;1766577;78;21089;-60
2021/09/20 11:14:21;;;;;;;1.80;1.50;;;;;;;23.31;47.97;99040.22;1771692;78;21057;-60
2021/09/20 11:16:59;;;;;;;2.98;1.60;;;;;;;23.31;47.96;99045.12;1769801;78;21098;-61
2021/09/20 11:19:31;;;;;;;2.75;1.70;;;;;;;23.32;47.98;99037.80;1772060;78;21113;-61
2021/09/20 11:22:16;;;;;;;1.90;1.70;;;;;;;23.32;47.95;99037.25;1768482;78;21009;-60
2021/09/20 11:24:52;;;;;;;1.95;1.70;;;;;;;23.34;47.95;99039.69;1776433;78;21126;-61
2021/09/20 11:27:40;;;;;;;2.30;1.70;;;;;;;23.34;47.92;99037.78;1775083;79;21676;-60
2021/09/20 11:30:16;;;;;;;2.08;1.60;;;;;;;23.36;47.93;99042.95;1784993;78;21006;-60
2021/09/20 11:33:02;;;;;;;1.70;1.52;;;;;;;;;;1791596;78;21005;-59
2021/09/20 11:35:31;;;;;;;2.45;1.30;;;;;;;23.40;47.91;99043.22;1783251;79;21534;-59
2021/09/20 11:38:03;;;;;;;2.25;1.80;;;;;;;23.41;47.86;99048.90;1759072;80;21089;-60
2021/09/20 11:40:32;;;;;;;1.70;1.60;;;;;;;23.41;47.94;99052.97;1793554;78;21048;-61
2021/09/20 11:43:02;;;;;;;2.95;1.70;;;;;;;23.42;47.92;99055.41;1792237;78;21020;-62